Time;durP1;ratioP1;P1;durP2;ratioP2;P2;SDS_P1;SDS_P2;PMS_P1;PMS_P2;Temp;Humidity;BMP_temperature;BMP_pressure;BME280_temperature;BME280_humidity;BME280_pressure;Samples;Min_cycle;Max_cycle;Signal;HPM_P1;HPM_P2
2022/12/23 00:01:07;;;;;;;73.05;33.42;;;;;;;;;;5053530;28;20082;-77
2022/12/23 00:03:33;;;;;;;73.00;32.55;;;;;;;;;;5053465;28;20095;-76
2022/12/23 00:05:59;;;;;;;80.22;34.30;;;;;;;;;;5052991;28;20028;-77
2022/12/23 00:08:25;;;;;;;69.82;33.97;;;;;;;;;;5054037;28;20398;-78
2022/12/23 00:10:53;;;;;;;76.88;34.10;;;;;;;;;;5057569;28;20029;-78
2022/12/23 00:16:04;;;;;;;70.95;34.13;;;;;;;;;;5066929;28;20508;-76
2022/12/23 00:18:30;;;;;;;69.65;33.60;;;;;;;;;;5063817;28;20029;-76
2022/12/23 00:21:03;;;;;;;69.80;33.50;;;;;;;;;;5062686;28;20541;-77
2022/12/23 00:23:31;;;;;;;70.38;35.08;;;;;;;;;;5062859;28;20409;-77
2022/12/23 00:25:57;;;;;;;72.03;34.83;;;;;;;;;;5061753;28;20028;-78
2022/12/23 00:28:23;;;;;;;83.20;35.40;;;;;;;;;;5077324;28;20005;-76
2022/12/23 00:30:53;;;;;;;78.97;35.58;;;;;;;;;;5075436;28;20048;-75
2022/12/23 00:33:21;;;;;;;72.38;34.67;;;;;;;;;;5069060;28;20029;-77
2022/12/23 00:35:48;;;;;;;69.28;34.83;;;;;;;;;;5077024;28;20048;-78
2022/12/23 00:38:14;;;;;;;74.68;36.47;;;;;;;;;;5070445;28;20040;-76
2022/12/23 00:43:25;;;;;;;74.03;34.97;;;;;;;;;;5055852;28;20102;-77
2022/12/23 00:45:51;;;;;;;71.53;35.67;;;;;;;;;;5055992;28;20437;-78
2022/12/23 00:51:01;;;;;;;74.22;34.60;;;;;;;;;;5056329;28;20036;-78
2022/12/23 00:53:27;;;;;;;73.53;35.13;;;;;;;;;;5056754;28;20116;-76
2022/12/23 00:55:53;;;;;;;73.43;35.45;;;;;;;;;;5058700;28;20061;-77
2022/12/23 00:58:20;;;;;;;72.38;36.78;;;;;;;;;;5057206;28;20024;-76
2022/12/23 01:06:17;;;;;;;;;;;;;;;;;;5053448;28;20128;-78
2022/12/23 01:08:43;;;;;;;79.50;37.08;;;;;;;;;;5053474;28;20362;-78
2022/12/23 01:11:10;;;;;;;78.88;37.03;;;;;;;;;;5053478;28;20021;-77
2022/12/23 01:13:37;;;;;;;73.38;36.92;;;;;;;;;;5053517;28;20025;-78
2022/12/23 01:16:04;;;;;;;77.45;36.20;;;;;;;;;;5053174;28;20067;-78
2022/12/23 01:18:30;;;;;;;77.07;38.33;;;;;;;;;;5051990;28;20021;-78
2022/12/23 01:20:56;;;;;;;79.00;37.22;;;;;;;;;;5052955;28;20395;-77
2022/12/23 01:23:22;;;;;;;79.07;37.65;;;;;;;;;;5054048;28;20074;-75
2022/12/23 01:25:55;;;;;;;68.60;36.33;;;;;;;;;;5053260;28;20044;-77
2022/12/23 01:28:21;;;;;;;81.22;37.92;;;;;;;;;;5052746;28;20407;-76
2022/12/23 01:30:47;;;;;;;77.68;37.35;;;;;;;;;;5053237;28;20123;-76
2022/12/23 01:33:13;;;;;;;73.45;35.95;;;;;;;;;;5054223;28;20028;-76
2022/12/23 01:35:39;;;;;;;80.05;39.03;;;;;;;;;;5053338;28;20466;-77
2022/12/23 01:38:04;;;;;;;74.45;36.50;;;;;;;;;;5053417;28;20031;-77
2022/12/23 01:40:35;;;;;;;74.97;36.88;;;;;;;;;;5052907;28;20564;-77
2022/12/23 01:43:01;;;;;;;73.85;36.65;;;;;;;;;;5053841;28;20094;-77
2022/12/23 01:45:33;;;;;;;82.88;40.28;;;;;;;;;;5053534;28;20022;-77
2022/12/23 01:48:05;;;;;;;78.82;38.28;;;;;;;;;;5053170;28;20028;-77
2022/12/23 01:50:34;;;;;;;74.75;36.97;;;;;;;;;;5053955;28;20082;-78
2022/12/23 01:53:06;;;;;;;78.03;36.45;;;;;;;;;;5053211;28;20025;-78
2022/12/23 01:55:34;;;;;;;77.72;39.00;;;;;;;;;;5051382;28;20471;-77
2022/12/23 01:58:04;;;;;;;87.85;41.40;;;;;;;;;;5054080;28;20021;-75
2022/12/23 02:09:15;;;;;;;84.35;39.22;;;;;;;;;;5053048;28;20036;-77
2022/12/23 02:09:27;;;;;;;81.07;37.72;;;;;;;;;;5054483;28;20029;-78
2022/12/23 02:11:50;;;;;;;77.18;39.63;;;;;;;;;;5068839;28;20123;-77
2022/12/23 02:17:33;;;;;;;83.28;39.95;;;;;;;;;;5061765;28;20493;-76
2022/12/23 02:20:17;;;;;;;80.75;41.00;;;;;;;;;;5052307;28;20060;-76
2022/12/23 02:22:49;;;;;;;80.07;39.50;;;;;;;;;;5051806;28;20052;-76
2022/12/23 02:25:34;;;;;;;94.32;41.30;;;;;;;;;;5052690;28;20103;-75
2022/12/23 02:28:00;;;;;;;;;;;;;;;;;;5052583;28;20032;-78
2022/12/23 02:30:34;;;;;;;83.50;40.55;;;;;;;;;;5051516;28;19917;-79
2022/12/23 02:33:11;;;;;;;90.68;42.17;;;;;;;;;;5063694;28;20077;-79
2022/12/23 02:35:43;;;;;;;98.28;42.35;;;;;;;;;;5076499;28;20041;-79
2022/12/23 02:38:11;;;;;;;84.30;40.45;;;;;;;;;;5052395;28;20031;-77
2022/12/23 02:40:46;;;;;;;87.10;40.22;;;;;;;;;;5053594;28;20051;-76
2022/12/23 02:43:18;;;;;;;85.22;40.28;;;;;;;;;;5062023;28;20025;-78
2022/12/23 02:45:46;;;;;;;82.28;40.40;;;;;;;;;;5072172;28;20032;-77
2022/12/23 02:48:19;;;;;;;91.97;43.67;;;;;;;;;;5065473;28;20021;-77
2022/12/23 02:50:45;;;;;;;87.65;41.35;;;;;;;;;;5063391;28;20058;-76
2022/12/23 02:53:15;;;;;;;90.80;43.28;;;;;;;;;;5060800;28;20058;-77
2022/12/23 02:55:42;;;;;;;83.65;42.67;;;;;;;;;;5068310;28;20049;-78
2022/12/23 02:58:11;;;;;;;85.15;41.90;;;;;;;;;;5070383;28;20021;-79
2022/12/23 03:00:38;;;;;;;85.05;41.70;;;;;;;;;;5070879;28;20029;-80
2022/12/23 03:03:04;;;;;;;95.63;44.47;;;;;;;;;;5070721;28;20033;-77
2022/12/23 03:05:30;;;;;;;87.57;41.20;;;;;;;;;;5051976;28;20025;-76
2022/12/23 03:07:58;;;;;;;84.35;41.67;;;;;;;;;;5052095;28;20053;-77
2022/12/23 03:10:36;;;;;;;86.22;42.72;;;;;;;;;;5051708;28;20025;-76
2022/12/23 03:13:13;;;;;;;95.32;43.35;;;;;;;;;;5051650;28;20029;-76
2022/12/23 03:15:46;;;;;;;90.68;43.65;;;;;;;;;;5054238;28;20605;-75
2022/12/23 03:18:21;;;;;;;87.53;42.72;;;;;;;;;;5052820;28;20505;-76
2022/12/23 03:20:56;;;;;;;92.50;43.63;;;;;;;;;;5055122;28;20031;-75
2022/12/23 03:23:27;;;;;;;89.45;43.03;;;;;;;;;;5055876;28;20477;-77
2022/12/23 03:26:23;;;;;;;92.90;44.92;;;;;;;;;;5054441;28;20616;-77
2022/12/23 03:28:50;;;;;;;89.05;42.28;;;;;;;;;;5047674;28;20064;-75
2022/12/23 03:31:19;;;;;;;90.65;44.15;;;;;;;;;;5051190;28;20037;-76
2022/12/23 03:33:47;;;;;;;95.15;44.65;;;;;;;;;;5052360;28;20090;-76
2022/12/23 03:36:19;;;;;;;96.82;44.30;;;;;;;;;;5050293;28;20075;-76
2022/12/23 03:38:47;;;;;;;91.05;42.85;;;;;;;;;;5050763;28;20075;-76
2022/12/23 03:41:14;;;;;;;94.57;44.47;;;;;;;;;;5050755;28;20514;-76
2022/12/23 03:43:42;;;;;;;91.05;43.05;;;;;;;;;;5053805;28;20043;-76
2022/12/23 03:46:10;;;;;;;89.88;44.22;;;;;;;;;;5055101;28;20112;-75
2022/12/23 03:48:39;;;;;;;91.95;44.78;;;;;;;;;;5054387;28;20036;-76
2022/12/23 03:51:10;;;;;;;95.53;44.58;;;;;;;;;;5054260;28;20367;-75
2022/12/23 03:53:43;;;;;;;97.20;45.35;;;;;;;;;;5054073;28;20029;-77
2022/12/23 03:56:12;;;;;;;95.68;47.45;;;;;;;;;;5054973;28;20025;-75
2022/12/23 03:58:57;;;;;;;90.32;45.08;;;;;;;;;;5055165;28;20025;-76
2022/12/23 04:01:38;;;;;;;92.72;44.30;;;;;;;;;;5055427;28;20029;-76
2022/12/23 04:04:10;;;;;;;105.03;47.15;;;;;;;;;;5054320;28;20024;-77
2022/12/23 04:06:41;;;;;;;98.65;46.58;;;;;;;;;;5063073;28;20035;-79
2022/12/23 04:09:08;;;;;;;95.50;45.28;;;;;;;;;;5063381;28;20025;-78
2022/12/23 04:11:35;;;;;;;99.93;46.15;;;;;;;;;;5062838;28;20048;-77
2022/12/23 04:14:01;;;;;;;94.72;44.78;;;;;;;;;;5063299;28;20036;-77
2022/12/23 04:16:28;;;;;;;107.20;48.17;;;;;;;;;;5062897;28;20029;-78
2022/12/23 04:18:54;;;;;;;95.45;45.80;;;;;;;;;;5062775;28;20025;-78
2022/12/23 04:21:20;;;;;;;107.72;47.45;;;;;;;;;;5063260;28;20046;-77
2022/12/23 04:23:46;;;;;;;94.70;45.08;;;;;;;;;;5057380;28;20120;-78
2022/12/23 04:26:12;;;;;;;109.80;49.00;;;;;;;;;;5058445;28;20498;-79
2022/12/23 04:28:37;;;;;;;102.03;46.80;;;;;;;;;;5056770;28;20509;-79
2022/12/23 04:31:03;;;;;;;103.80;48.15;;;;;;;;;;5058802;28;20037;-78
2022/12/23 04:33:29;;;;;;;105.68;48.90;;;;;;;;;;5057958;28;20025;-78
2022/12/23 04:35:55;;;;;;;104.15;46.75;;;;;;;;;;5059371;28;20032;-78
2022/12/23 04:38:21;;;;;;;104.47;48.67;;;;;;;;;;5059696;28;20056;-78
2022/12/23 04:40:47;;;;;;;99.85;47.60;;;;;;;;;;5079784;28;20043;-80
2022/12/23 04:43:14;;;;;;;115.30;51.25;;;;;;;;;;5079995;28;20017;-80
2022/12/23 04:45:40;;;;;;;104.40;47.47;;;;;;;;;;5079639;28;20013;-79
2022/12/23 04:48:05;;;;;;;112.20;48.42;;;;;;;;;;5075195;28;20059;-79
2022/12/23 04:50:31;;;;;;;109.45;48.25;;;;;;;;;;5060736;28;20383;-78
2022/12/23 04:52:57;;;;;;;110.68;48.78;;;;;;;;;;5060993;28;20429;-77
2022/12/23 04:55:23;;;;;;;107.03;46.92;;;;;;;;;;5057746;28;20104;-77
2022/12/23 04:57:49;;;;;;;117.28;53.10;;;;;;;;;;5062972;28;20077;-76
2022/12/23 05:00:15;;;;;;;106.47;48.08;;;;;;;;;;5071987;28;20045;-77
2022/12/23 05:02:41;;;;;;;104.35;48.85;;;;;;;;;;5069672;28;20079;-78
2022/12/23 05:05:07;;;;;;;107.80;47.65;;;;;;;;;;5067504;28;20025;-78
2022/12/23 05:07:33;;;;;;;112.60;48.92;;;;;;;;;;5064320;28;20028;-79
2022/12/23 05:10:00;;;;;;;109.00;49.17;;;;;;;;;;5059878;28;20025;-78
2022/12/23 05:12:27;;;;;;;102.95;48.75;;;;;;;;;;5058037;28;20151;-78
2022/12/23 05:14:53;;;;;;;108.10;48.20;;;;;;;;;;5063432;28;20498;-78
2022/12/23 05:17:19;;;;;;;111.82;48.03;;;;;;;;;;5066995;28;20104;-78
2022/12/23 05:19:45;;;;;;;123.15;53.10;;;;;;;;;;5066321;28;20092;-79
2022/12/23 05:22:11;;;;;;;115.30;50.63;;;;;;;;;;5059948;28;20024;-79
2022/12/23 05:24:37;;;;;;;114.95;49.50;;;;;;;;;;5060393;28;20081;-79
2022/12/23 05:27:03;;;;;;;120.32;51.70;;;;;;;;;;5060013;28;20025;-78
2022/12/23 05:29:29;;;;;;;122.18;53.28;;;;;;;;;;5058193;28;20159;-79
2022/12/23 05:31:55;;;;;;;121.35;51.92;;;;;;;;;;5055777;28;20508;-79
2022/12/23 05:34:21;;;;;;;118.78;51.15;;;;;;;;;;5041343;28;20115;-78
2022/12/23 05:36:47;;;;;;;113.45;49.67;;;;;;;;;;5053854;28;20080;-77
2022/12/23 05:39:13;;;;;;;131.30;54.08;;;;;;;;;;5056570;28;20057;-77
2022/12/23 05:41:39;;;;;;;115.25;51.15;;;;;;;;;;5057009;28;20021;-79
2022/12/23 05:44:05;;;;;;;117.10;49.50;;;;;;;;;;5056870;28;20033;-78
2022/12/23 05:46:31;;;;;;;124.95;51.65;;;;;;;;;;5056628;28;20061;-78
2022/12/23 05:48:56;;;;;;;122.20;50.22;;;;;;;;;;5055043;28;20497;-79
2022/12/23 05:51:22;;;;;;;119.38;51.25;;;;;;;;;;5053575;28;20066;-78
2022/12/23 05:53:48;;;;;;;136.63;53.65;;;;;;;;;;5055355;28;20025;-78
2022/12/23 05:56:14;;;;;;;127.10;52.70;;;;;;;;;;5054737;28;20526;-78
2022/12/23 05:58:40;;;;;;;123.53;51.83;;;;;;;;;;5056882;28;20307;-75
2022/12/23 06:01:06;;;;;;;122.95;52.38;;;;;;;;;;5054984;28;20017;-78
2022/12/23 06:03:32;;;;;;;134.77;53.47;;;;;;;;;;5056140;28;20448;-78
2022/12/23 06:05:58;;;;;;;125.53;53.28;;;;;;;;;;5056954;28;20048;-78
2022/12/23 06:08:24;;;;;;;136.45;53.78;;;;;;;;;;5063986;28;20108;-77
2022/12/23 06:10:50;;;;;;;122.10;50.78;;;;;;;;;;5072801;28;20047;-76
2022/12/23 06:13:16;;;;;;;119.35;49.60;;;;;;;;;;5070261;28;20094;-77
2022/12/23 06:15:42;;;;;;;119.88;49.88;;;;;;;;;;5071523;28;20029;-79
2022/12/23 06:18:08;;;;;;;120.00;50.97;;;;;;;;;;5069326;28;20017;-76
2022/12/23 06:20:34;;;;;;;111.78;47.88;;;;;;;;;;5074678;28;20063;-80
2022/12/23 06:23:00;;;;;;;121.18;49.08;;;;;;;;;;5077889;28;20041;-79
2022/12/23 06:25:26;;;;;;;120.75;49.83;;;;;;;;;;5067194;28;20045;-78
2022/12/23 06:27:52;;;;;;;113.00;49.42;;;;;;;;;;5072275;28;20033;-79
2022/12/23 06:30:18;;;;;;;120.38;49.33;;;;;;;;;;5077358;28;20052;-77
2022/12/23 06:32:44;;;;;;;122.97;49.95;;;;;;;;;;5077287;28;20052;-79
2022/12/23 06:35:12;;;;;;;111.97;47.58;;;;;;;;;;5084602;28;20048;-77
2022/12/23 06:37:38;;;;;;;110.82;46.83;;;;;;;;;;5050403;28;20504;-76
2022/12/23 06:40:04;;;;;;;108.43;45.70;;;;;;;;;;5051742;28;20112;-77
2022/12/23 06:42:30;;;;;;;117.93;47.65;;;;;;;;;;5042112;28;20415;-78
2022/12/23 06:44:56;;;;;;;105.57;44.75;;;;;;;;;;5051404;28;20021;-78
2022/12/23 06:47:22;;;;;;;109.72;44.75;;;;;;;;;;5051145;28;20445;-78
2022/12/23 06:49:48;;;;;;;102.57;42.97;;;;;;;;;;5056583;28;20375;-79
2022/12/23 06:52:13;;;;;;;105.35;45.00;;;;;;;;;;5056222;28;20056;-79
2022/12/23 06:54:39;;;;;;;102.47;42.88;;;;;;;;;;5048441;28;20383;-78
2022/12/23 06:57:05;;;;;;;100.68;43.58;;;;;;;;;;5052448;28;20529;-76
2022/12/23 06:59:31;;;;;;;99.50;42.70;;;;;;;;;;5051006;28;20543;-78
2022/12/23 07:01:57;;;;;;;103.13;43.08;;;;;;;;;;5053579;28;20025;-77
2022/12/23 07:04:23;;;;;;;97.22;42.25;;;;;;;;;;5054600;28;20120;-78
2022/12/23 07:06:49;;;;;;;101.78;42.78;;;;;;;;;;5055275;28;20094;-78
2022/12/23 07:09:15;;;;;;;104.28;42.47;;;;;;;;;;5052842;28;20028;-77
2022/12/23 07:11:41;;;;;;;97.78;43.45;;;;;;;;;;5051854;28;20025;-79
2022/12/23 07:14:07;;;;;;;99.97;42.65;;;;;;;;;;5057397;28;20393;-79
2022/12/23 07:16:33;;;;;;;110.43;42.83;;;;;;;;;;5073498;28;20032;-78
2022/12/23 07:18:59;;;;;;;103.05;42.78;;;;;;;;;;5080915;28;20021;-78
2022/12/23 07:21:25;;;;;;;100.05;42.63;;;;;;;;;;5081922;28;20017;-77
2022/12/23 07:23:51;;;;;;;99.18;41.38;;;;;;;;;;5081194;28;20032;-78
2022/12/23 07:26:17;;;;;;;134.07;43.45;;;;;;;;;;5075282;28;20490;-77
2022/12/23 07:28:47;;;;;;;104.05;42.15;;;;;;;;;;5064585;28;20029;-77
2022/12/23 07:31:13;;;;;;;110.00;44.38;;;;;;;;;;5056898;28;20036;-78
2022/12/23 07:33:39;;;;;;;101.55;43.97;;;;;;;;;;5057628;28;20163;-77
2022/12/23 07:36:05;;;;;;;109.25;44.78;;;;;;;;;;5057155;28;20068;-77
2022/12/23 07:38:31;;;;;;;102.18;42.63;;;;;;;;;;5058429;28;20039;-78
2022/12/23 07:40:57;;;;;;;109.60;44.00;;;;;;;;;;5060309;28;20025;-78
2022/12/23 07:43:23;;;;;;;101.47;41.88;;;;;;;;;;5058383;28;20056;-78
2022/12/23 07:45:49;;;;;;;132.20;45.47;;;;;;;;;;5059079;28;20032;-78
2022/12/23 07:48:15;;;;;;;110.93;43.75;;;;;;;;;;5063702;28;20032;-79
2022/12/23 07:50:41;;;;;;;101.57;41.33;;;;;;;;;;5064041;28;20486;-78
2022/12/23 07:53:07;;;;;;;132.23;50.03;;;;;;;;;;5060542;28;20465;-77
2022/12/23 07:55:33;;;;;;;124.05;43.47;;;;;;;;;;5063802;28;20032;-78
2022/12/23 07:57:59;;;;;;;110.07;41.83;;;;;;;;;;5066994;28;20029;-77
2022/12/23 08:00:25;;;;;;;108.25;40.13;;;;;;;;;;5060976;28;20029;-77
2022/12/23 08:02:51;;;;;;;108.50;41.50;;;;;;;;;;5058109;28;20029;-77
2022/12/23 08:05:17;;;;;;;111.85;42.22;;;;;;;;;;5058960;28;20080;-76
2022/12/23 08:07:44;;;;;;;122.70;43.88;;;;;;;;;;5057985;28;20021;-78
2022/12/23 08:10:10;;;;;;;119.45;45.33;;;;;;;;;;5059520;28;20025;-78
2022/12/23 08:12:36;;;;;;;122.55;44.55;;;;;;;;;;5059272;28;20036;-77
2022/12/23 08:15:02;;;;;;;112.55;43.20;;;;;;;;;;5069847;28;20021;-79
2022/12/23 08:17:28;;;;;;;108.03;40.58;;;;;;;;;;5076683;28;20005;-78
2022/12/23 08:19:54;;;;;;;113.97;40.10;;;;;;;;;;5076678;28;20029;-77
2022/12/23 08:22:20;;;;;;;100.60;41.05;;;;;;;;;;5079955;28;20027;-78
2022/12/23 08:24:47;;;;;;;110.82;41.72;;;;;;;;;;5077088;28;20024;-76
2022/12/23 08:27:13;;;;;;;117.70;42.42;;;;;;;;;;5071730;28;20033;-77
2022/12/23 08:29:39;;;;;;;102.55;41.10;;;;;;;;;;5067918;28;20032;-78
2022/12/23 08:32:05;;;;;;;109.68;41.90;;;;;;;;;;5060282;28;20131;-78
2022/12/23 08:34:31;;;;;;;112.03;42.47;;;;;;;;;;5059035;28;20037;-79
2022/12/23 08:36:57;;;;;;;135.35;41.63;;;;;;;;;;5059848;28;20075;-79
2022/12/23 08:39:23;;;;;;;113.03;39.88;;;;;;;;;;5061047;28;20021;-79
2022/12/23 08:41:49;;;;;;;97.75;38.95;;;;;;;;;;5065856;28;20421;-79
2022/12/23 08:44:16;;;;;;;151.18;39.15;;;;;;;;;;5063313;28;20065;-78
2022/12/23 08:46:43;;;;;;;108.60;41.45;;;;;;;;;;5058392;28;20033;-76
2022/12/23 08:49:09;;;;;;;101.20;39.53;;;;;;;;;;5062364;28;20502;-76
2022/12/23 08:51:35;;;;;;;106.72;40.38;;;;;;;;;;5061557;28;20044;-75
2022/12/23 08:54:02;;;;;;;104.45;40.25;;;;;;;;;;5060832;28;20108;-76
2022/12/23 08:56:32;;;;;;;108.35;42.33;;;;;;;;;;5058451;28;20021;-77
2022/12/23 08:58:58;;;;;;;155.77;57.95;;;;;;;;;;5060355;28;20470;-78
2022/12/23 09:01:25;;;;;;;111.25;41.58;;;;;;;;;;5061325;28;20025;-78
2022/12/23 09:03:52;;;;;;;142.73;42.03;;;;;;;;;;5057992;28;20033;-78
2022/12/23 09:06:22;;;;;;;106.85;42.13;;;;;;;;;;5055106;28;20420;-78
2022/12/23 09:08:48;;;;;;;102.88;39.83;;;;;;;;;;5055775;28;20166;-77
2022/12/23 09:11:16;;;;;;;114.63;41.03;;;;;;;;;;5056099;28;20036;-77
2022/12/23 09:13:42;;;;;;;105.70;40.05;;;;;;;;;;5056877;28;20084;-78
2022/12/23 09:16:08;;;;;;;107.35;39.75;;;;;;;;;;5055202;28;20021;-78
2022/12/23 09:18:35;;;;;;;110.32;43.05;;;;;;;;;;5058026;28;20048;-79
2022/12/23 09:21:03;;;;;;;108.90;42.75;;;;;;;;;;5056260;28;20040;-77
2022/12/23 09:23:29;;;;;;;102.93;38.47;;;;;;;;;;5059401;28;20424;-77
2022/12/23 09:25:55;;;;;;;96.18;39.33;;;;;;;;;;5057311;28;20029;-76
2022/12/23 09:28:21;;;;;;;101.68;39.90;;;;;;;;;;5062239;28;20056;-77
2022/12/23 09:30:47;;;;;;;108.78;41.25;;;;;;;;;;5067303;28;20142;-76
2022/12/23 09:33:13;;;;;;;107.85;42.63;;;;;;;;;;5057785;28;20474;-74
2022/12/23 09:35:39;;;;;;;104.85;40.20;;;;;;;;;;5060001;28;20874;-73
2022/12/23 09:38:05;;;;;;;105.43;40.30;;;;;;;;;;5066190;28;20032;-73
2022/12/23 09:40:32;;;;;;;107.95;41.28;;;;;;;;;;5070503;28;20040;-73
2022/12/23 09:43:25;;;;;;;97.22;38.80;;;;;;;;;;5064905;28;20021;-73
2022/12/23 09:45:54;;;;;;;103.32;39.83;;;;;;;;;;5053334;28;20025;-76
2022/12/23 09:48:21;;;;;;;99.60;39.45;;;;;;;;;;5053421;28;20021;-73
2022/12/23 09:50:47;;;;;;;105.40;40.17;;;;;;;;;;5053291;28;20025;-75
2022/12/23 09:53:17;;;;;;;98.38;38.72;;;;;;;;;;5053672;28;20064;-77
2022/12/23 09:55:56;;;;;;;103.97;39.58;;;;;;;;;;5052707;28;20108;-75
2022/12/23 09:58:29;;;;;;;107.47;40.42;;;;;;;;;;5051844;28;20028;-75
2022/12/23 10:00:58;;;;;;;113.97;42.53;;;;;;;;;;5055445;28;20028;-78
2022/12/23 10:03:43;;;;;;;103.20;40.35;;;;;;;;;;5059020;28;20414;-78
2022/12/23 10:06:09;;;;;;;104.18;39.50;;;;;;;;;;5057652;28;20029;-77
2022/12/23 10:08:39;;;;;;;93.00;37.35;;;;;;;;;;5055873;28;20040;-78
2022/12/23 10:11:13;;;;;;;96.85;37.75;;;;;;;;;;5054816;28;20044;-77
2022/12/23 10:13:42;;;;;;;90.03;34.95;;;;;;;;;;5057284;28;20082;-77
2022/12/23 10:16:12;;;;;;;89.22;35.15;;;;;;;;;;5055970;28;20029;-77
2022/12/23 10:18:47;;;;;;;87.43;34.08;;;;;;;;;;5056104;28;20083;-76
2022/12/23 10:21:13;;;;;;;84.57;33.67;;;;;;;;;;5057848;28;20021;-77
2022/12/23 10:23:42;;;;;;;82.80;32.17;;;;;;;;;;5059929;28;20025;-78
2022/12/23 10:26:21;;;;;;;87.72;33.13;;;;;;;;;;5056061;28;20025;-77
2022/12/23 10:28:47;;;;;;;79.22;32.50;;;;;;;;;;5056067;28;20371;-76
2022/12/23 10:31:22;;;;;;;79.22;32.78;;;;;;;;;;5076011;28;20040;-76
2022/12/23 10:33:53;;;;;;;82.00;33.17;;;;;;;;;;5064660;28;20116;-75
2022/12/23 10:36:23;;;;;;;75.05;32.03;;;;;;;;;;5069217;28;20036;-76
2022/12/23 10:39:05;;;;;;;78.80;30.38;;;;;;;;;;5067390;28;20017;-76
2022/12/23 10:41:39;;;;;;;71.10;30.77;;;;;;;;;;5063242;28;20021;-76
2022/12/23 10:44:14;;;;;;;106.45;40.97;;;;;;;;;;5053548;28;20482;-77
2022/12/23 10:46:59;;;;;;;101.82;42.83;;;;;;;;;;5048073;28;20506;-77
2022/12/23 10:49:24;;;;;;;;;;;;;;;;;;5052780;28;20386;-77
2022/12/23 10:51:52;;;;;;;74.55;28.88;;;;;;;;;;5052210;28;19905;-77
2022/12/23 10:54:27;;;;;;;69.05;28.25;;;;;;;;;;5053145;28;20108;-77
2022/12/23 10:56:54;;;;;;;67.53;28.02;;;;;;;;;;5050545;28;20029;-78
2022/12/23 10:59:22;;;;;;;70.88;28.90;;;;;;;;;;5057274;28;20032;-78
2022/12/23 11:01:52;;;;;;;76.50;31.02;;;;;;;;;;5064658;28;20024;-76
2022/12/23 11:04:20;;;;;;;74.88;30.13;;;;;;;;;;5075604;28;20025;-76
2022/12/23 11:06:49;;;;;;;68.05;28.10;;;;;;;;;;5059552;28;20029;-77
2022/12/23 11:09:20;;;;;;;74.45;30.48;;;;;;;;;;5057744;28;20067;-78
2022/12/23 11:11:57;;;;;;;71.30;28.63;;;;;;;;;;5059679;28;20032;-77
2022/12/23 11:14:46;;;;;;;70.32;30.30;;;;;;;;;;5059257;28;20025;-76
2022/12/23 11:17:22;;;;;;;66.18;28.65;;;;;;;;;;5070203;28;20095;-77
2022/12/23 11:20:06;;;;;;;70.20;29.10;;;;;;;;;;5077048;28;20010;-76
2022/12/23 11:22:32;;;;;;;72.22;28.55;;;;;;;;;;5076325;28;20032;-76
2022/12/23 11:25:16;;;;;;;75.38;29.35;;;;;;;;;;5071765;28;20497;-78
2022/12/23 11:27:44;;;;;;;69.65;28.80;;;;;;;;;;5055734;28;20040;-76
2022/12/23 11:30:17;;;;;;;80.03;32.28;;;;;;;;;;5054435;28;20067;-77
2022/12/23 11:32:43;;;;;;;74.85;30.60;;;;;;;;;;5055085;28;20116;-78
2022/12/23 11:35:22;;;;;;;84.32;31.63;;;;;;;;;;5054865;28;20052;-77
2022/12/23 11:37:48;;;;;;;81.82;32.03;;;;;;;;;;5056017;28;20021;-76
2022/12/23 11:40:22;;;;;;;82.78;31.70;;;;;;;;;;5057472;28;20074;-77
2022/12/23 11:42:51;;;;;;;79.43;29.77;;;;;;;;;;5059371;28;20051;-77
2022/12/23 11:45:21;;;;;;;79.75;29.92;;;;;;;;;;5055761;28;20428;-76
2022/12/23 11:47:49;;;;;;;75.80;30.35;;;;;;;;;;5056645;28;20471;-77
2022/12/23 11:50:27;;;;;;;76.63;31.25;;;;;;;;;;5062197;28;20029;-78
2022/12/23 11:53:02;;;;;;;85.88;32.47;;;;;;;;;;5062696;28;20036;-76
2022/12/23 11:55:31;;;;;;;77.28;30.75;;;;;;;;;;5064770;28;20139;-77
2022/12/23 11:57:58;;;;;;;78.47;31.42;;;;;;;;;;5069877;28;20089;-77
2022/12/23 12:00:29;;;;;;;71.60;27.60;;;;;;;;;;5067654;28;20045;-77
2022/12/23 12:02:57;;;;;;;70.20;29.00;;;;;;;;;;5060903;28;20036;-77
2022/12/23 12:05:29;;;;;;;71.00;29.08;;;;;;;;;;5064628;28;20030;-77
2022/12/23 12:08:00;;;;;;;62.10;25.98;;;;;;;;;;5063991;28;20083;-78
2022/12/23 12:10:31;;;;;;;64.97;25.60;;;;;;;;;;5059236;28;20107;-77
2022/12/23 12:13:00;;;;;;;60.47;25.30;;;;;;;;;;5064098;28;20059;-77
2022/12/23 12:15:29;;;;;;;62.72;25.55;;;;;;;;;;5062811;28;20078;-78
2022/12/23 12:17:56;;;;;;;71.78;27.42;;;;;;;;;;5064292;28;20081;-77
2022/12/23 12:20:35;;;;;;;62.78;25.65;;;;;;;;;;5058004;28;20486;-78
2022/12/23 12:23:27;;;;;;;60.80;24.83;;;;;;;;;;5059056;28;20029;-78
2022/12/23 12:25:55;;;;;;;58.30;22.92;;;;;;;;;;5061391;28;20071;-78
2022/12/23 12:28:23;;;;;;;58.47;23.15;;;;;;;;;;5055086;28;20029;-77
2022/12/23 12:31:03;;;;;;;67.03;26.33;;;;;;;;;;5056184;28;20036;-78
2022/12/23 12:33:29;;;;;;;75.72;25.30;;;;;;;;;;5060435;28;20032;-78
2022/12/23 12:36:13;;;;;;;58.97;24.60;;;;;;;;;;5061682;28;20021;-78
2022/12/23 12:38:40;;;;;;;62.92;24.75;;;;;;;;;;5065976;28;20051;-78
2022/12/23 12:41:18;;;;;;;58.17;23.15;;;;;;;;;;5070592;28;20085;-78
2022/12/23 12:44:01;;;;;;;58.05;23.42;;;;;;;;;;5064277;28;20086;-78
2022/12/23 12:46:27;;;;;;;56.83;23.83;;;;;;;;;;5065384;28;20020;-77
2022/12/23 12:48:53;;;;;;;59.72;23.40;;;;;;;;;;5067040;28;20474;-78
2022/12/23 12:51:24;;;;;;;57.88;23.25;;;;;;;;;;5066826;28;20032;-79
2022/12/23 12:54:08;;;;;;;59.95;23.58;;;;;;;;;;5064328;28;20180;-79
2022/12/23 12:56:39;;;;;;;57.33;24.08;;;;;;;;;;5062688;28;20021;-78
2022/12/23 12:59:05;;;;;;;57.40;22.52;;;;;;;;;;5066840;28;20021;-78
2022/12/23 13:02:04;;;;;;;59.10;23.02;;;;;;;;;;5061104;28;20033;-81
2022/12/23 13:04:42;;;;;;;54.42;22.42;;;;;;;;;;5048604;28;20033;-78
2022/12/23 13:07:08;;;;;;;58.25;25.25;;;;;;;;;;5064083;28;20033;-77
2022/12/23 13:09:43;;;;;;;58.55;25.35;;;;;;;;;;5070538;28;20032;-78
2022/12/23 13:12:22;;;;;;;54.30;23.30;;;;;;;;;;5065556;28;20478;-79
2022/12/23 13:15:07;;;;;;;60.72;26.67;;;;;;;;;;5071340;28;20025;-81
2022/12/23 13:17:39;;;;;;;57.85;22.70;;;;;;;;;;5071308;28;20021;-79
2022/12/23 13:20:08;;;;;;;53.67;21.88;;;;;;;;;;5070507;28;20095;-78
2022/12/23 13:22:34;;;;;;;66.22;26.67;;;;;;;;;;5070337;28;20036;-78
2022/12/23 13:25:05;;;;;;;52.58;22.35;;;;;;;;;;5073309;28;20029;-77
2022/12/23 13:27:32;;;;;;;52.92;22.70;;;;;;;;;;5071450;28;20025;-77
2022/12/23 13:29:58;;;;;;;57.10;23.55;;;;;;;;;;5074273;28;20036;-79
2022/12/23 13:32:39;;;;;;;51.58;23.55;;;;;;;;;;5074856;28;20025;-77
2022/12/23 13:35:25;;;;;;;47.92;23.05;;;;;;;;;;5071685;28;20032;-77
2022/12/23 13:37:56;;;;;;;58.80;24.80;;;;;;;;;;5073540;28;20102;-77
2022/12/23 13:40:39;;;;;;;51.15;22.92;;;;;;;;;;5078177;28;20041;-80
2022/12/23 13:43:12;;;;;;;50.00;22.05;;;;;;;;;;5076412;28;20033;-80
2022/12/23 13:45:39;;;;;;;52.40;22.80;;;;;;;;;;5072093;28;20059;-77
2022/12/23 13:48:28;;;;;;;50.47;23.00;;;;;;;;;;5074237;28;20419;-79
2022/12/23 13:51:01;;;;;;;46.58;21.85;;;;;;;;;;5073132;28;20028;-79
2022/12/23 13:53:27;;;;;;;46.08;21.02;;;;;;;;;;5067920;28;20021;-78
2022/12/23 13:55:56;;;;;;;53.13;21.92;;;;;;;;;;5072194;28;20037;-79
2022/12/23 13:58:26;;;;;;;58.92;24.10;;;;;;;;;;5073373;28;20028;-80
2022/12/23 14:01:08;;;;;;;50.13;22.42;;;;;;;;;;5052307;28;20089;-79
2022/12/23 14:03:35;;;;;;;52.80;23.75;;;;;;;;;;5065464;28;20029;-78
2022/12/23 14:06:23;;;;;;;48.70;22.70;;;;;;;;;;5062769;28;20116;-77
2022/12/23 14:08:50;;;;;;;46.95;21.00;;;;;;;;;;5066621;28;20033;-75
2022/12/23 14:11:29;;;;;;;47.03;21.30;;;;;;;;;;5083521;28;20044;-79
2022/12/23 14:13:57;;;;;;;49.10;21.92;;;;;;;;;;5069683;28;20063;-77
2022/12/23 14:16:33;;;;;;;44.40;21.30;;;;;;;;;;5070469;28;20034;-77
2022/12/23 14:18:59;;;;;;;45.40;22.27;;;;;;;;;;5070126;28;20025;-76
2022/12/23 14:21:34;;;;;;;44.00;20.98;;;;;;;;;;5064306;28;20047;-78
2022/12/23 14:24:17;;;;;;;44.28;21.70;;;;;;;;;;5065918;28;20040;-77
2022/12/23 14:26:52;;;;;;;46.08;23.02;;;;;;;;;;5042989;28;20032;-80
2022/12/23 14:29:39;;;;;;;53.90;23.83;;;;;;;;;;5070358;28;20036;-76
2022/12/23 14:32:18;;;;;;;60.20;26.05;;;;;;;;;;5074760;28;20029;-77
2022/12/23 14:35:03;;;;;;;58.50;25.70;;;;;;;;;;5058625;28;20025;-78
2022/12/23 14:37:33;;;;;;;64.05;30.15;;;;;;;;;;5056677;28;20047;-78
2022/12/23 14:40:19;;;;;;;60.13;27.70;;;;;;;;;;5065954;28;20027;-78
2022/12/23 14:42:45;;;;;;;59.38;26.67;;;;;;;;;;5058586;28;20035;-76
2022/12/23 14:45:29;;;;;;;62.53;28.05;;;;;;;;;;5069386;28;20136;-77
2022/12/23 14:47:55;;;;;;;67.78;27.80;;;;;;;;;;5062072;28;20052;-78
2022/12/23 14:50:33;;;;;;;71.03;29.10;;;;;;;;;;5065040;28;20039;-78